sensor_id;sensor_type;location;lat;lon;timestamp;temperature;humidity
23120;DHT22;11729;50.836;4.330;2023-04-24T00:02:23;11.10;99.90
23120;DHT22;11729;50.836;4.330;2023-04-24T00:04:49;11.00;99.90
23120;DHT22;11729;50.836;4.330;2023-04-24T00:07:15;11.10;99.90
23120;DHT22;11729;50.836;4.330;2023-04-24T00:09:45;11.00;99.90
23120;DHT22;11729;50.836;4.330;2023-04-24T00:12:11;10.90;99.90
23120;DHT22;11729;50.836;4.330;2023-04-24T00:14:37;10.70;99.90
23120;DHT22;11729;50.836;4.330;2023-04-24T00:17:03;10.70;99.90
23120;DHT22;11729;50.836;4.330;2023-04-24T00:19:29;10.50;99.90
23120;DHT22;11729;50.836;4.330;2023-04-24T00:21:55;10.50;99.90
23120;DHT22;11729;50.836;4.330;2023-04-24T00:24:21;10.50;99.90
23120;DHT22;11729;50.836;4.330;2023-04-24T00:26:47;10.60;99.90
23120;DHT22;11729;50.836;4.330;2023-04-24T00:29:12;10.30;99.90
23120;DHT22;11729;50.836;4.330;2023-04-24T00:31:39;10.30;99.90
23120;DHT22;11729;50.836;4.330;2023-04-24T00:34:05;10.30;99.90
23120;DHT22;11729;50.836;4.330;2023-04-24T00:36:31;10.40;99.90
23120;DHT22;11729;50.836;4.330;2023-04-24T00:38:58;10.40;99.90
23120;DHT22;11729;50.836;4.330;2023-04-24T00:41:25;10.20;99.90
23120;DHT22;11729;50.836;4.330;2023-04-24T00:43:52;10.20;99.90
23120;DHT22;11729;50.836;4.330;2023-04-24T00:46:17;10.10;99.90
23120;DHT22;11729;50.836;4.330;2023-04-24T00:48:44;10.10;99.90
23120;DHT22;11729;50.836;4.330;2023-04-24T00:51:10;10.20;99.90
23120;DHT22;11729;50.836;4.330;2023-04-24T00:53:36;10.30;99.90
23120;DHT22;11729;50.836;4.330;2023-04-24T00:56:02;10.30;99.90
23120;DHT22;11729;50.836;4.330;2023-04-24T00:58:28;10.40;99.90
23120;DHT22;11729;50.836;4.330;2023-04-24T01:00:56;10.40;99.90
23120;DHT22;11729;50.836;4.330;2023-04-24T01:03:27;10.30;99.90
23120;DHT22;11729;50.836;4.330;2023-04-24T01:05:54;10.40;99.90
23120;DHT22;11729;50.836;4.330;2023-04-24T01:08:22;10.50;99.90
23120;DHT22;11729;50.836;4.330;2023-04-24T01:10:52;10.40;99.90
23120;DHT22;11729;50.836;4.330;2023-04-24T01:13:19;10.40;99.90
23120;DHT22;11729;50.836;4.330;2023-04-24T01:15:46;10.30;99.90
23120;DHT22;11729;50.836;4.330;2023-04-24T01:18:13;10.20;99.90
23120;DHT22;11729;50.836;4.330;2023-04-24T01:20:42;10.20;99.90
23120;DHT22;11729;50.836;4.330;2023-04-24T01:23:10;10.20;99.90
23120;DHT22;11729;50.836;4.330;2023-04-24T01:25:37;10.20;99.90
23120;DHT22;11729;50.836;4.330;2023-04-24T01:28:03;10.20;99.90
23120;DHT22;11729;50.836;4.330;2023-04-24T01:30:29;10.10;99.90
23120;DHT22;11729;50.836;4.330;2023-04-24T01:32:56;10.10;99.90
23120;DHT22;11729;50.836;4.330;2023-04-24T01:35:22;10.00;99.90
23120;DHT22;11729;50.836;4.330;2023-04-24T01:37:48;9.90;99.90
23120;DHT22;11729;50.836;4.330;2023-04-24T01:40:14;10.00;99.90
23120;DHT22;11729;50.836;4.330;2023-04-24T01:42:41;9.90;99.90
23120;DHT22;11729;50.836;4.330;2023-04-24T01:45:10;9.90;99.90
23120;DHT22;11729;50.836;4.330;2023-04-24T01:47:36;9.90;99.90
23120;DHT22;11729;50.836;4.330;2023-04-24T01:50:04;9.90;99.90
23120;DHT22;11729;50.836;4.330;2023-04-24T01:52:29;10.00;99.90
23120;DHT22;11729;50.836;4.330;2023-04-24T01:55:00;10.10;99.90
23120;DHT22;11729;50.836;4.330;2023-04-24T01:57:25;10.10;99.90
23120;DHT22;11729;50.836;4.330;2023-04-24T01:59:52;10.00;99.90
23120;DHT22;11729;50.836;4.330;2023-04-24T02:02:18;10.00;99.90
23120;DHT22;11729;50.836;4.330;2023-04-24T02:04:43;10.00;99.90
23120;DHT22;11729;50.836;4.330;2023-04-24T02:07:09;10.00;99.90
23120;DHT22;11729;50.836;4.330;2023-04-24T02:09:35;9.90;99.90
23120;DHT22;11729;50.836;4.330;2023-04-24T02:12:01;10.00;99.90
23120;DHT22;11729;50.836;4.330;2023-04-24T02:14:26;10.00;99.90
23120;DHT22;11729;50.836;4.330;2023-04-24T02:16:52;10.10;99.90
23120;DHT22;11729;50.836;4.330;2023-04-24T02:19:18;10.00;99.90
23120;DHT22;11729;50.836;4.330;2023-04-24T02:21:45;9.90;99.90
23120;DHT22;11729;50.836;4.330;2023-04-24T02:24:11;9.90;99.90
23120;DHT22;11729;50.836;4.330;2023-04-24T02:26:36;10.10;99.90
23120;DHT22;11729;50.836;4.330;2023-04-24T02:29:02;10.10;99.90
23120;DHT22;11729;50.836;4.330;2023-04-24T02:31:28;10.10;99.90
23120;DHT22;11729;50.836;4.330;2023-04-24T02:33:53;10.00;99.90
23120;DHT22;11729;50.836;4.330;2023-04-24T02:36:19;10.00;99.90
23120;DHT22;11729;50.836;4.330;2023-04-24T02:38:45;10.00;99.90
23120;DHT22;11729;50.836;4.330;2023-04-24T02:41:10;10.00;99.90
23120;DHT22;11729;50.836;4.330;2023-04-24T02:43:36;10.00;99.90
23120;DHT22;11729;50.836;4.330;2023-04-24T02:46:03;10.10;99.90
23120;DHT22;11729;50.836;4.330;2023-04-24T02:48:28;10.00;99.90
23120;DHT22;11729;50.836;4.330;2023-04-24T02:50:54;9.90;99.90
23120;DHT22;11729;50.836;4.330;2023-04-24T02:53:20;9.90;99.90
23120;DHT22;11729;50.836;4.330;2023-04-24T02:55:45;9.90;99.90
23120;DHT22;11729;50.836;4.330;2023-04-24T02:58:11;10.00;99.90
23120;DHT22;11729;50.836;4.330;2023-04-24T03:00:38;9.90;99.90
23120;DHT22;11729;50.836;4.330;2023-04-24T03:03:05;9.80;99.90
23120;DHT22;11729;50.836;4.330;2023-04-24T03:05:30;9.80;99.90
23120;DHT22;11729;50.836;4.330;2023-04-24T03:07:57;9.80;99.90
23120;DHT22;11729;50.836;4.330;2023-04-24T03:10:22;10.10;99.90
23120;DHT22;11729;50.836;4.330;2023-04-24T03:12:49;10.00;99.90
23120;DHT22;11729;50.836;4.330;2023-04-24T03:15:15;9.90;99.90
23120;DHT22;11729;50.836;4.330;2023-04-24T03:17:40;9.80;99.90
23120;DHT22;11729;50.836;4.330;2023-04-24T03:20:07;9.70;99.90
23120;DHT22;11729;50.836;4.330;2023-04-24T03:22:33;9.70;99.90
23120;DHT22;11729;50.836;4.330;2023-04-24T03:25:00;9.60;99.90
23120;DHT22;11729;50.836;4.330;2023-04-24T03:27:25;9.70;99.90
23120;DHT22;11729;50.836;4.330;2023-04-24T03:29:51;9.70;99.90
23120;DHT22;11729;50.836;4.330;2023-04-24T03:32:21;9.70;99.90
23120;DHT22;11729;50.836;4.330;2023-04-24T03:34:47;9.90;99.90
23120;DHT22;11729;50.836;4.330;2023-04-24T03:37:13;9.80;99.90
23120;DHT22;11729;50.836;4.330;2023-04-24T03:39:38;9.90;99.90
23120;DHT22;11729;50.836;4.330;2023-04-24T03:42:04;9.90;99.90
23120;DHT22;11729;50.836;4.330;2023-04-24T03:44:30;9.90;99.90
23120;DHT22;11729;50.836;4.330;2023-04-24T03:46:55;9.80;99.90
23120;DHT22;11729;50.836;4.330;2023-04-24T03:49:21;10.20;99.90
23120;DHT22;11729;50.836;4.330;2023-04-24T03:51:47;10.10;99.90
23120;DHT22;11729;50.836;4.330;2023-04-24T03:54:13;10.10;99.90
23120;DHT22;11729;50.836;4.330;2023-04-24T03:56:39;9.90;99.90
23120;DHT22;11729;50.836;4.330;2023-04-24T03:59:04;9.80;99.90
23120;DHT22;11729;50.836;4.330;2023-04-24T04:01:30;9.80;99.90
23120;DHT22;11729;50.836;4.330;2023-04-24T04:03:56;10.10;99.90
23120;DHT22;11729;50.836;4.330;2023-04-24T04:06:21;10.10;99.90
23120;DHT22;11729;50.836;4.330;2023-04-24T04:08:47;10.10;99.90
23120;DHT22;11729;50.836;4.330;2023-04-24T04:11:13;9.90;99.90
23120;DHT22;11729;50.836;4.330;2023-04-24T04:13:39;10.10;99.90
23120;DHT22;11729;50.836;4.330;2023-04-24T04:16:05;10.10;99.90
23120;DHT22;11729;50.836;4.330;2023-04-24T04:18:30;10.30;99.90
23120;DHT22;11729;50.836;4.330;2023-04-24T04:20:56;10.30;99.90
23120;DHT22;11729;50.836;4.330;2023-04-24T04:23:22;10.40;99.90
23120;DHT22;11729;50.836;4.330;2023-04-24T04:25:48;10.20;99.90
23120;DHT22;11729;50.836;4.330;2023-04-24T04:28:15;10.00;99.90
23120;DHT22;11729;50.836;4.330;2023-04-24T04:30:40;10.10;99.90
23120;DHT22;11729;50.836;4.330;2023-04-24T04:33:06;10.10;99.90
23120;DHT22;11729;50.836;4.330;2023-04-24T04:35:33;10.30;99.90
23120;DHT22;11729;50.836;4.330;2023-04-24T04:37:59;10.20;99.90
23120;DHT22;11729;50.836;4.330;2023-04-24T04:40:25;10.20;99.90
23120;DHT22;11729;50.836;4.330;2023-04-24T04:42:50;10.10;99.90
23120;DHT22;11729;50.836;4.330;2023-04-24T04:45:18;10.10;99.90
23120;DHT22;11729;50.836;4.330;2023-04-24T04:47:44;9.90;99.90
23120;DHT22;11729;50.836;4.330;2023-04-24T04:50:10;10.10;99.90
23120;DHT22;11729;50.836;4.330;2023-04-24T04:52:36;10.10;99.90
23120;DHT22;11729;50.836;4.330;2023-04-24T04:55:01;10.00;99.90
23120;DHT22;11729;50.836;4.330;2023-04-24T04:57:27;10.10;99.90
23120;DHT22;11729;50.836;4.330;2023-04-24T04:59:53;9.90;99.90
23120;DHT22;11729;50.836;4.330;2023-04-24T05:02:19;10.00;99.90
23120;DHT22;11729;50.836;4.330;2023-04-24T05:04:44;10.00;99.90
23120;DHT22;11729;50.836;4.330;2023-04-24T05:07:10;10.20;99.90
23120;DHT22;11729;50.836;4.330;2023-04-24T05:09:36;10.30;99.90
23120;DHT22;11729;50.836;4.330;2023-04-24T05:12:03;10.20;99.90
23120;DHT22;11729;50.836;4.330;2023-04-24T05:14:28;10.00;99.90
23120;DHT22;11729;50.836;4.330;2023-04-24T05:16:54;9.80;99.90
23120;DHT22;11729;50.836;4.330;2023-04-24T05:19:20;9.70;99.90
23120;DHT22;11729;50.836;4.330;2023-04-24T05:21:45;9.90;99.90
23120;DHT22;11729;50.836;4.330;2023-04-24T05:24:11;9.90;99.90
23120;DHT22;11729;50.836;4.330;2023-04-24T05:26:37;9.80;99.90
23120;DHT22;11729;50.836;4.330;2023-04-24T05:29:03;9.80;99.90
23120;DHT22;11729;50.836;4.330;2023-04-24T05:31:29;9.70;99.90
23120;DHT22;11729;50.836;4.330;2023-04-24T05:33:55;9.70;99.90
23120;DHT22;11729;50.836;4.330;2023-04-24T05:36:20;9.90;99.90
23120;DHT22;11729;50.836;4.330;2023-04-24T05:38:46;9.90;99.90
23120;DHT22;11729;50.836;4.330;2023-04-24T05:41:11;10.00;99.90
23120;DHT22;11729;50.836;4.330;2023-04-24T05:43:39;9.90;99.90
23120;DHT22;11729;50.836;4.330;2023-04-24T05:46:04;9.80;99.90
23120;DHT22;11729;50.836;4.330;2023-04-24T05:48:30;9.80;99.90
23120;DHT22;11729;50.836;4.330;2023-04-24T05:50:56;9.80;99.90
23120;DHT22;11729;50.836;4.330;2023-04-24T05:53:22;9.90;99.90
23120;DHT22;11729;50.836;4.330;2023-04-24T05:55:48;9.90;99.90
23120;DHT22;11729;50.836;4.330;2023-04-24T05:58:14;9.60;99.90
23120;DHT22;11729;50.836;4.330;2023-04-24T06:00:40;9.60;99.90
23120;DHT22;11729;50.836;4.330;2023-04-24T06:03:07;9.70;99.90
23120;DHT22;11729;50.836;4.330;2023-04-24T06:05:33;9.50;99.90
23120;DHT22;11729;50.836;4.330;2023-04-24T06:07:59;9.80;99.90
23120;DHT22;11729;50.836;4.330;2023-04-24T06:10:25;9.70;99.90
23120;DHT22;11729;50.836;4.330;2023-04-24T06:12:50;9.60;99.90
23120;DHT22;11729;50.836;4.330;2023-04-24T06:15:17;9.80;99.90
23120;DHT22;11729;50.836;4.330;2023-04-24T06:17:43;10.10;99.90
23120;DHT22;11729;50.836;4.330;2023-04-24T06:20:09;9.90;99.90
23120;DHT22;11729;50.836;4.330;2023-04-24T06:22:38;9.70;99.90
23120;DHT22;11729;50.836;4.330;2023-04-24T06:25:05;9.60;99.90
23120;DHT22;11729;50.836;4.330;2023-04-24T06:27:32;9.80;99.90
23120;DHT22;11729;50.836;4.330;2023-04-24T06:29:58;9.80;99.90
23120;DHT22;11729;50.836;4.330;2023-04-24T06:32:24;9.80;99.90
23120;DHT22;11729;50.836;4.330;2023-04-24T06:34:51;9.70;99.90
23120;DHT22;11729;50.836;4.330;2023-04-24T06:37:18;9.70;99.90
23120;DHT22;11729;50.836;4.330;2023-04-24T06:39:44;9.80;99.90
23120;DHT22;11729;50.836;4.330;2023-04-24T06:42:09;9.80;99.90
23120;DHT22;11729;50.836;4.330;2023-04-24T06:44:36;9.70;99.90
23120;DHT22;11729;50.836;4.330;2023-04-24T06:47:07;9.60;99.90
23120;DHT22;11729;50.836;4.330;2023-04-24T06:49:34;9.60;99.90
23120;DHT22;11729;50.836;4.330;2023-04-24T06:52:00;9.50;99.90
23120;DHT22;11729;50.836;4.330;2023-04-24T06:54:25;9.60;99.90
23120;DHT22;11729;50.836;4.330;2023-04-24T06:56:51;9.80;99.90
23120;DHT22;11729;50.836;4.330;2023-04-24T06:59:18;9.90;99.90
23120;DHT22;11729;50.836;4.330;2023-04-24T07:01:44;10.10;99.90
23120;DHT22;11729;50.836;4.330;2023-04-24T07:04:09;10.30;99.90
23120;DHT22;11729;50.836;4.330;2023-04-24T07:06:35;10.30;99.90
23120;DHT22;11729;50.836;4.330;2023-04-24T07:09:01;10.20;99.90
23120;DHT22;11729;50.836;4.330;2023-04-24T07:11:28;10.10;99.90
23120;DHT22;11729;50.836;4.330;2023-04-24T07:13:55;10.00;99.90
23120;DHT22;11729;50.836;4.330;2023-04-24T07:16:20;10.00;99.90
23120;DHT22;11729;50.836;4.330;2023-04-24T07:18:46;10.20;99.90
23120;DHT22;11729;50.836;4.330;2023-04-24T07:21:12;10.40;99.90
23120;DHT22;11729;50.836;4.330;2023-04-24T07:23:38;10.50;99.90
23120;DHT22;11729;50.836;4.330;2023-04-24T07:26:03;10.80;99.90
23120;DHT22;11729;50.836;4.330;2023-04-24T07:28:29;10.70;99.90
23120;DHT22;11729;50.836;4.330;2023-04-24T07:30:57;10.60;99.90
23120;DHT22;11729;50.836;4.330;2023-04-24T07:33:24;10.60;99.90
23120;DHT22;11729;50.836;4.330;2023-04-24T07:35:50;10.70;99.90
23120;DHT22;11729;50.836;4.330;2023-04-24T07:38:18;10.70;99.90
23120;DHT22;11729;50.836;4.330;2023-04-24T07:40:47;10.70;99.90
23120;DHT22;11729;50.836;4.330;2023-04-24T07:43:12;11.00;99.90
23120;DHT22;11729;50.836;4.330;2023-04-24T07:45:38;11.00;99.90
23120;DHT22;11729;50.836;4.330;2023-04-24T07:48:05;11.30;99.90
23120;DHT22;11729;50.836;4.330;2023-04-24T07:50:30;11.40;99.90
23120;DHT22;11729;50.836;4.330;2023-04-24T07:52:56;11.40;99.90
23120;DHT22;11729;50.836;4.330;2023-04-24T07:55:22;11.60;99.90
23120;DHT22;11729;50.836;4.330;2023-04-24T07:57:48;11.70;99.90
23120;DHT22;11729;50.836;4.330;2023-04-24T08:00:13;11.70;99.90
23120;DHT22;11729;50.836;4.330;2023-04-24T08:02:39;11.30;99.90
23120;DHT22;11729;50.836;4.330;2023-04-24T08:05:06;11.60;99.90
23120;DHT22;11729;50.836;4.330;2023-04-24T08:07:31;11.50;99.90
23120;DHT22;11729;50.836;4.330;2023-04-24T08:09:57;11.20;99.90
23120;DHT22;11729;50.836;4.330;2023-04-24T08:12:25;11.10;99.90
23120;DHT22;11729;50.836;4.330;2023-04-24T08:14:51;11.40;99.90
23120;DHT22;11729;50.836;4.330;2023-04-24T08:17:17;11.40;99.90
23120;DHT22;11729;50.836;4.330;2023-04-24T08:19:43;11.60;99.90
23120;DHT22;11729;50.836;4.330;2023-04-24T08:22:13;11.70;99.90
23120;DHT22;11729;50.836;4.330;2023-04-24T08:24:38;11.70;99.90
23120;DHT22;11729;50.836;4.330;2023-04-24T08:27:04;12.10;99.90
23120;DHT22;11729;50.836;4.330;2023-04-24T08:29:31;12.00;99.90
23120;DHT22;11729;50.836;4.330;2023-04-24T08:31:57;12.00;99.90
23120;DHT22;11729;50.836;4.330;2023-04-24T08:34:22;12.10;99.90
23120;DHT22;11729;50.836;4.330;2023-04-24T08:36:48;12.30;99.90
23120;DHT22;11729;50.836;4.330;2023-04-24T08:39:14;12.20;99.90
23120;DHT22;11729;50.836;4.330;2023-04-24T08:41:42;12.40;99.90
23120;DHT22;11729;50.836;4.330;2023-04-24T08:44:12;12.70;99.90
23120;DHT22;11729;50.836;4.330;2023-04-24T08:46:38;13.90;99.90
23120;DHT22;11729;50.836;4.330;2023-04-24T08:49:05;14.70;99.90
23120;DHT22;11729;50.836;4.330;2023-04-24T08:51:31;15.50;99.90
23120;DHT22;11729;50.836;4.330;2023-04-24T08:53:57;15.80;99.90
23120;DHT22;11729;50.836;4.330;2023-04-24T08:56:23;16.70;99.90
23120;DHT22;11729;50.836;4.330;2023-04-24T08:58:53;17.20;99.90
23120;DHT22;11729;50.836;4.330;2023-04-24T09:01:20;17.30;99.90
23120;DHT22;11729;50.836;4.330;2023-04-24T09:03:48;17.60;99.90
23120;DHT22;11729;50.836;4.330;2023-04-24T09:06:16;17.70;99.90
23120;DHT22;11729;50.836;4.330;2023-04-24T09:08:44;17.70;99.90
23120;DHT22;11729;50.836;4.330;2023-04-24T09:11:11;18.40;99.90
23120;DHT22;11729;50.836;4.330;2023-04-24T09:13:37;18.90;99.90
23120;DHT22;11729;50.836;4.330;2023-04-24T09:16:03;19.80;99.90
23120;DHT22;11729;50.836;4.330;2023-04-24T09:18:29;19.60;99.90
23120;DHT22;11729;50.836;4.330;2023-04-24T09:21:03;19.10;99.90
23120;DHT22;11729;50.836;4.330;2023-04-24T09:23:30;18.10;99.90
23120;DHT22;11729;50.836;4.330;2023-04-24T09:25:57;17.40;99.90
23120;DHT22;11729;50.836;4.330;2023-04-24T09:28:46;17.00;99.90
23120;DHT22;11729;50.836;4.330;2023-04-24T09:31:18;16.00;99.90
23120;DHT22;11729;50.836;4.330;2023-04-24T09:36:30;14.50;99.90
23120;DHT22;11729;50.836;4.330;2023-04-24T09:39:01;14.30;99.90
23120;DHT22;11729;50.836;4.330;2023-04-24T09:41:29;15.20;99.90
23120;DHT22;11729;50.836;4.330;2023-04-24T09:43:56;16.30;99.90
23120;DHT22;11729;50.836;4.330;2023-04-24T09:46:29;16.60;99.90
23120;DHT22;11729;50.836;4.330;2023-04-24T09:48:55;16.80;99.90
23120;DHT22;11729;50.836;4.330;2023-04-24T09:51:34;16.60;99.90
23120;DHT22;11729;50.836;4.330;2023-04-24T09:54:01;15.90;99.90
23120;DHT22;11729;50.836;4.330;2023-04-24T09:56:26;15.40;99.90
23120;DHT22;11729;50.836;4.330;2023-04-24T09:58:54;14.50;99.90
23120;DHT22;11729;50.836;4.330;2023-04-24T10:01:33;14.20;99.90
23120;DHT22;11729;50.836;4.330;2023-04-24T10:03:58;13.90;99.90
23120;DHT22;11729;50.836;4.330;2023-04-24T10:06:33;14.00;99.90
23120;DHT22;11729;50.836;4.330;2023-04-24T10:08:59;14.10;99.90
23120;DHT22;11729;50.836;4.330;2023-04-24T10:11:27;14.20;99.90
23120;DHT22;11729;50.836;4.330;2023-04-24T10:13:53;14.10;99.90
23120;DHT22;11729;50.836;4.330;2023-04-24T10:16:21;14.10;99.90
23120;DHT22;11729;50.836;4.330;2023-04-24T10:18:49;14.20;99.90
23120;DHT22;11729;50.836;4.330;2023-04-24T10:21:16;14.10;99.90
23120;DHT22;11729;50.836;4.330;2023-04-24T10:23:42;14.30;99.90
23120;DHT22;11729;50.836;4.330;2023-04-24T10:26:09;14.20;99.90
23120;DHT22;11729;50.836;4.330;2023-04-24T10:28:36;14.20;99.90
23120;DHT22;11729;50.836;4.330;2023-04-24T10:31:02;13.90;99.90
23120;DHT22;11729;50.836;4.330;2023-04-24T10:33:29;13.80;99.90
23120;DHT22;11729;50.836;4.330;2023-04-24T10:35:56;13.70;99.90
23120;DHT22;11729;50.836;4.330;2023-04-24T10:38:25;13.90;99.90
23120;DHT22;11729;50.836;4.330;2023-04-24T10:41:13;14.40;99.90
23120;DHT22;11729;50.836;4.330;2023-04-24T10:43:45;14.80;99.90
23120;DHT22;11729;50.836;4.330;2023-04-24T10:46:19;15.50;99.90
23120;DHT22;11729;50.836;4.330;2023-04-24T10:48:52;16.30;99.90
23120;DHT22;11729;50.836;4.330;2023-04-24T10:51:22;16.60;99.90
23120;DHT22;11729;50.836;4.330;2023-04-24T10:53:52;16.90;99.90
23120;DHT22;11729;50.836;4.330;2023-04-24T10:56:18;17.00;99.90
23120;DHT22;11729;50.836;4.330;2023-04-24T10:58:51;16.90;99.90
23120;DHT22;11729;50.836;4.330;2023-04-24T11:01:37;16.70;99.90
23120;DHT22;11729;50.836;4.330;2023-04-24T11:04:03;16.80;99.90
23120;DHT22;11729;50.836;4.330;2023-04-24T11:06:32;16.90;99.90
23120;DHT22;11729;50.836;4.330;2023-04-24T11:09:08;16.50;99.90
23120;DHT22;11729;50.836;4.330;2023-04-24T11:11:36;16.40;99.90
23120;DHT22;11729;50.836;4.330;2023-04-24T11:14:04;16.60;99.90
23120;DHT22;11729;50.836;4.330;2023-04-24T11:22:03;16.40;99.90
23120;DHT22;11729;50.836;4.330;2023-04-24T11:32:18;15.90;99.90
23120;DHT22;11729;50.836;4.330;2023-04-24T11:34:49;15.90;99.90
23120;DHT22;11729;50.836;4.330;2023-04-24T11:37:15;16.10;99.90
23120;DHT22;11729;50.836;4.330;2023-04-24T11:39:41;16.10;99.90
23120;DHT22;11729;50.836;4.330;2023-04-24T11:42:09;15.90;99.90
23120;DHT22;11729;50.836;4.330;2023-04-24T11:44:35;15.60;99.90
23120;DHT22;11729;50.836;4.330;2023-04-24T11:47:06;15.00;99.90
23120;DHT22;11729;50.836;4.330;2023-04-24T11:49:37;15.00;99.90
23120;DHT22;11729;50.836;4.330;2023-04-24T11:52:04;15.20;99.90
23120;DHT22;11729;50.836;4.330;2023-04-24T11:54:30;15.40;99.90
23120;DHT22;11729;50.836;4.330;2023-04-24T11:56:56;15.80;99.90
23120;DHT22;11729;50.836;4.330;2023-04-24T11:59:22;16.40;99.90
23120;DHT22;11729;50.836;4.330;2023-04-24T12:01:49;16.30;99.90
23120;DHT22;11729;50.836;4.330;2023-04-24T12:04:18;16.80;99.90
23120;DHT22;11729;50.836;4.330;2023-04-24T12:07:10;17.20;99.90
23120;DHT22;11729;50.836;4.330;2023-04-24T12:09:49;17.10;99.90
23120;DHT22;11729;50.836;4.330;2023-04-24T12:12:17;17.30;99.90
23120;DHT22;11729;50.836;4.330;2023-04-24T12:14:54;17.00;99.90
23120;DHT22;11729;50.836;4.330;2023-04-24T12:17:31;16.80;99.90
23120;DHT22;11729;50.836;4.330;2023-04-24T12:20:02;17.20;99.90
23120;DHT22;11729;50.836;4.330;2023-04-24T12:23:00;17.40;99.90
23120;DHT22;11729;50.836;4.330;2023-04-24T12:25:28;17.90;99.90
23120;DHT22;11729;50.836;4.330;2023-04-24T12:28:09;18.80;99.90
23120;DHT22;11729;50.836;4.330;2023-04-24T12:30:43;19.10;99.90
23120;DHT22;11729;50.836;4.330;2023-04-24T12:33:11;18.90;99.90
23120;DHT22;11729;50.836;4.330;2023-04-24T12:35:40;17.60;99.90
23120;DHT22;11729;50.836;4.330;2023-04-24T12:38:09;17.40;99.90
23120;DHT22;11729;50.836;4.330;2023-04-24T12:40:35;17.80;99.90
23120;DHT22;11729;50.836;4.330;2023-04-24T12:43:12;19.10;99.90
23120;DHT22;11729;50.836;4.330;2023-04-24T12:45:38;20.00;98.30
23120;DHT22;11729;50.836;4.330;2023-04-24T12:48:04;20.10;98.40
23120;DHT22;11729;50.836;4.330;2023-04-24T12:50:30;20.30;97.70
23120;DHT22;11729;50.836;4.330;2023-04-24T12:52:55;20.20;96.70
23120;DHT22;11729;50.836;4.330;2023-04-24T12:55:22;20.10;96.90
23120;DHT22;11729;50.836;4.330;2023-04-24T12:57:47;19.50;96.80
23120;DHT22;11729;50.836;4.330;2023-04-24T13:00:14;18.50;99.90
23120;DHT22;11729;50.836;4.330;2023-04-24T13:02:39;18.20;99.90
23120;DHT22;11729;50.836;4.330;2023-04-24T13:05:05;17.80;99.90
23120;DHT22;11729;50.836;4.330;2023-04-24T13:07:31;17.70;99.90
23120;DHT22;11729;50.836;4.330;2023-04-24T13:09:57;18.20;99.90
23120;DHT22;11729;50.836;4.330;2023-04-24T13:12:26;19.10;99.90
23120;DHT22;11729;50.836;4.330;2023-04-24T13:14:52;20.30;97.60
23120;DHT22;11729;50.836;4.330;2023-04-24T13:17:18;21.10;95.40
23120;DHT22;11729;50.836;4.330;2023-04-24T13:19:44;21.40;93.50
23120;DHT22;11729;50.836;4.330;2023-04-24T13:22:11;22.20;90.80
23120;DHT22;11729;50.836;4.330;2023-04-24T13:24:38;22.20;87.90
23120;DHT22;11729;50.836;4.330;2023-04-24T13:27:06;21.70;88.60
23120;DHT22;11729;50.836;4.330;2023-04-24T13:29:31;21.20;90.00
23120;DHT22;11729;50.836;4.330;2023-04-24T13:31:57;20.50;90.80
23120;DHT22;11729;50.836;4.330;2023-04-24T13:34:24;19.50;93.70
23120;DHT22;11729;50.836;4.330;2023-04-24T13:36:54;19.70;95.00
23120;DHT22;11729;50.836;4.330;2023-04-24T13:39:21;20.10;92.40
23120;DHT22;11729;50.836;4.330;2023-04-24T13:41:47;20.10;92.30
23120;DHT22;11729;50.836;4.330;2023-04-24T13:44:16;20.20;92.30
23120;DHT22;11729;50.836;4.330;2023-04-24T13:46:44;19.30;93.00
23120;DHT22;11729;50.836;4.330;2023-04-24T13:49:11;19.20;94.30
23120;DHT22;11729;50.836;4.330;2023-04-24T13:51:38;19.10;94.70
23120;DHT22;11729;50.836;4.330;2023-04-24T13:54:03;18.90;95.10
23120;DHT22;11729;50.836;4.330;2023-04-24T13:56:29;18.80;96.40
23120;DHT22;11729;50.836;4.330;2023-04-24T13:58:55;18.60;95.40
23120;DHT22;11729;50.836;4.330;2023-04-24T14:01:21;18.30;96.00
23120;DHT22;11729;50.836;4.330;2023-04-24T14:03:51;17.80;95.80
23120;DHT22;11729;50.836;4.330;2023-04-24T14:06:18;17.60;96.40
23120;DHT22;11729;50.836;4.330;2023-04-24T14:08:44;17.40;96.70
23120;DHT22;11729;50.836;4.330;2023-04-24T14:11:10;16.90;97.40
23120;DHT22;11729;50.836;4.330;2023-04-24T14:13:37;16.90;96.80
23120;DHT22;11729;50.836;4.330;2023-04-24T14:16:06;16.60;97.50
23120;DHT22;11729;50.836;4.330;2023-04-24T14:18:31;16.30;98.70
23120;DHT22;11729;50.836;4.330;2023-04-24T14:20:57;16.20;99.90
23120;DHT22;11729;50.836;4.330;2023-04-24T14:23:23;16.30;99.90
23120;DHT22;11729;50.836;4.330;2023-04-24T14:25:49;16.30;99.90
23120;DHT22;11729;50.836;4.330;2023-04-24T14:28:19;16.30;98.90
23120;DHT22;11729;50.836;4.330;2023-04-24T14:30:46;16.20;99.90
23120;DHT22;11729;50.836;4.330;2023-04-24T14:33:11;16.20;99.20
23120;DHT22;11729;50.836;4.330;2023-04-24T14:35:38;16.00;99.10
23120;DHT22;11729;50.836;4.330;2023-04-24T14:38:05;15.90;99.90
23120;DHT22;11729;50.836;4.330;2023-04-24T14:40:30;16.00;99.00
23120;DHT22;11729;50.836;4.330;2023-04-24T14:42:58;15.90;99.60
23120;DHT22;11729;50.836;4.330;2023-04-24T14:45:24;15.80;99.90
23120;DHT22;11729;50.836;4.330;2023-04-24T14:47:50;15.80;99.30
23120;DHT22;11729;50.836;4.330;2023-04-24T14:50:16;15.60;99.70
23120;DHT22;11729;50.836;4.330;2023-04-24T14:52:42;15.40;99.90
23120;DHT22;11729;50.836;4.330;2023-04-24T14:55:08;15.50;99.90
23120;DHT22;11729;50.836;4.330;2023-04-24T14:57:34;15.50;99.90
23120;DHT22;11729;50.836;4.330;2023-04-24T15:00:02;15.50;99.90
23120;DHT22;11729;50.836;4.330;2023-04-24T15:02:32;15.70;99.90
23120;DHT22;11729;50.836;4.330;2023-04-24T15:04:58;15.70;99.90
23120;DHT22;11729;50.836;4.330;2023-04-24T15:07:24;15.70;99.90
23120;DHT22;11729;50.836;4.330;2023-04-24T15:09:51;15.60;99.90
23120;DHT22;11729;50.836;4.330;2023-04-24T15:12:17;15.60;99.90
23120;DHT22;11729;50.836;4.330;2023-04-24T15:14:42;15.60;99.90
23120;DHT22;11729;50.836;4.330;2023-04-24T15:17:08;15.50;99.90
23120;DHT22;11729;50.836;4.330;2023-04-24T15:19:34;15.60;99.90
23120;DHT22;11729;50.836;4.330;2023-04-24T15:21:59;15.60;99.90
23120;DHT22;11729;50.836;4.330;2023-04-24T15:24:25;15.70;99.90
23120;DHT22;11729;50.836;4.330;2023-04-24T15:26:53;15.50;99.90
23120;DHT22;11729;50.836;4.330;2023-04-24T15:29:20;15.40;99.90
23120;DHT22;11729;50.836;4.330;2023-04-24T15:31:46;15.40;99.90
23120;DHT22;11729;50.836;4.330;2023-04-24T15:34:11;15.40;99.90
23120;DHT22;11729;50.836;4.330;2023-04-24T15:36:40;15.30;99.90
23120;DHT22;11729;50.836;4.330;2023-04-24T15:39:06;15.50;99.90
23120;DHT22;11729;50.836;4.330;2023-04-24T15:41:31;15.50;99.90
23120;DHT22;11729;50.836;4.330;2023-04-24T15:43:57;15.60;99.90
23120;DHT22;11729;50.836;4.330;2023-04-24T15:46:23;15.50;99.90
23120;DHT22;11729;50.836;4.330;2023-04-24T15:48:49;15.30;99.90
23120;DHT22;11729;50.836;4.330;2023-04-24T15:51:15;15.20;99.90